Time;durP1;ratioP1;P1;durP2;ratioP2;P2;SDS_P1;SDS_P2;PMS_P1;PMS_P2;Temp;Humidity;BMP_temperature;BMP_pressure;BME280_temperature;BME280_humidity;BME280_pressure;Samples;Min_cycle;Max_cycle;Signal;HPM_P1;HPM_P2
2023/02/15 00:01:36;;;;;;;7.57;6.93;;;;;;;4.57;88.39;102075.53;5016640;28;20245;-78
2023/02/15 00:04:02;;;;;;;7.93;7.23;;;;;;;4.48;89.61;102057.13;5017446;28;20215;-80
2023/02/15 00:06:29;;;;;;;7.53;6.83;;;;;;;4.46;90.31;102022.59;5017368;28;20218;-84
2023/02/15 00:08:56;;;;;;;7.65;7.15;;;;;;;4.54;89.76;102022.03;5015538;28;20489;-80
2023/02/15 00:14:04;;;;;;;6.73;6.20;;;;;;;4.40;87.73;102056.03;5015844;28;20652;-82
2023/02/15 00:16:31;;;;;;;6.23;5.73;;;;;;;4.29;87.31;102076.34;5021099;28;20588;-81
2023/02/15 00:19:01;;;;;;;6.87;6.27;;;;;;;4.19;87.83;102077.75;5035876;28;20249;-79
2023/02/15 00:21:28;;;;;;;6.07;5.57;;;;;;;4.14;88.18;102072.44;5036232;28;20202;-79
2023/02/15 00:23:54;;;;;;;6.07;5.57;;;;;;;3.82;89.03;102062.69;5035712;28;20261;-82
2023/02/15 00:26:20;;;;;;;5.67;5.17;;;;;;;3.72;89.76;102048.56;5036258;28;20202;-81
2023/02/15 00:28:47;;;;;;;5.60;5.10;;;;;;;3.74;90.94;102008.19;5035945;28;20634;-81
2023/02/15 00:31:15;;;;;;;5.07;4.67;;;;;;;3.76;91.18;101989.31;5036074;28;20253;-79
2023/02/15 00:33:41;;;;;;;5.33;4.93;;;;;;;3.79;92.12;101955.00;5036364;28;20232;-80
2023/02/15 00:36:10;;;;;;;5.57;4.97;;;;;;;3.62;92.81;101927.72;5036102;28;20210;-82
2023/02/15 00:38:36;;;;;;;4.97;4.50;;;;;;;3.73;93.03;101909.19;5035980;28;20288;-83
2023/02/15 00:41:04;;;;;;;5.17;4.40;;;;;;;3.68;92.29;101915.03;5036111;28;20222;-79
2023/02/15 00:43:32;;;;;;;5.57;4.93;;;;;;;3.69;92.33;101911.63;5036037;28;20210;-79
2023/02/15 00:45:59;;;;;;;5.77;5.23;;;;;;;3.76;92.62;101908.41;5035768;28;20260;-80
2023/02/15 00:48:27;;;;;;;5.17;4.73;;;;;;;3.84;92.58;101900.91;5015799;28;20286;-81
2023/02/15 00:50:55;;;;;;;5.10;4.70;;;;;;;3.85;92.03;101902.66;5015866;28;20209;-84
2023/02/15 00:53:22;;;;;;;5.60;5.10;;;;;;;3.83;92.10;101912.94;5016278;28;20214;-83
2023/02/15 00:55:49;;;;;;;8.23;7.53;;;;;;;3.82;91.68;101918.91;5016526;28;20202;-82
2023/02/15 00:58:16;;;;;;;6.40;5.63;;;;;;;3.77;91.66;101923.06;5015872;28;20284;-82
2023/02/15 01:00:44;;;;;;;5.17;4.67;;;;;;;3.75;91.98;101910.09;5015613;28;20277;-82
2023/02/15 01:03:11;;;;;;;5.47;5.00;;;;;;;3.77;92.47;101911.03;5015388;28;20222;-82
2023/02/15 01:05:38;;;;;;;4.80;4.37;;;;;;;3.76;91.54;101903.22;5015511;28;20233;-81
2023/02/15 01:08:05;;;;;;;6.03;5.53;;;;;;;3.75;91.91;101909.25;5016321;28;20743;-82
2023/02/15 01:10:32;;;;;;;7.33;6.63;;;;;;;3.69;93.13;101890.97;5015782;28;20230;-79
2023/02/15 01:12:58;;;;;;;7.10;6.50;;;;;;;3.87;93.57;101863.13;5015968;28;20739;-80
2023/02/15 01:15:25;;;;;;;8.53;7.70;;;;;;;4.02;93.71;101854.97;5015769;28;20417;-82
2023/02/15 01:17:53;;;;;;;8.07;7.37;;;;;;;4.08;93.52;101864.63;5017940;28;20204;-81
2023/02/15 01:20:20;;;;;;;7.77;7.03;;;;;;;4.09;93.31;101846.59;5015456;28;20320;-80
2023/02/15 01:22:49;;;;;;;7.77;6.97;;;;;;;4.12;92.82;101869.06;5015765;28;20672;-82
2023/02/15 01:25:16;;;;;;;9.60;8.70;;;;;;;4.30;91.97;101886.81;5016690;28;20214;-81
2023/02/15 01:27:43;;;;;;;8.50;7.70;;;;;;;4.42;91.43;101909.59;5015604;28;20284;-82
2023/02/15 01:30:10;;;;;;;7.40;6.80;;;;;;;4.52;90.44;101927.13;5015015;28;20231;-80
2023/02/15 01:32:37;;;;;;;7.53;6.93;;;;;;;4.54;89.93;101944.47;5015156;28;20210;-81
2023/02/15 01:35:03;;;;;;;8.50;7.80;;;;;;;4.61;89.63;101953.25;5015301;28;20214;-81
2023/02/15 01:37:31;;;;;;;8.87;8.07;;;;;;;4.67;89.66;101968.09;5015689;28;20761;-83
2023/02/15 01:39:59;;;;;;;7.60;6.90;;;;;;;4.66;89.03;101980.16;5014748;28;20263;-81
2023/02/15 01:42:27;;;;;;;7.63;6.93;;;;;;;4.62;89.15;101998.09;5015517;28;20631;-82
2023/02/15 01:44:55;;;;;;;8.53;7.73;;;;;;;4.62;88.10;102005.84;5015213;28;20685;-80
2023/02/15 01:47:34;;;;;;;6.80;6.20;;;;;;;4.59;88.13;102017.00;5014839;28;20577;-80
2023/02/15 01:50:10;;;;;;;7.47;6.77;;;;;;;4.49;87.57;102028.75;5015319;28;20224;-79
2023/02/15 01:52:39;;;;;;;7.60;6.90;;;;;;;4.48;87.54;102039.03;5016329;28;20211;-81
2023/02/15 01:55:08;;;;;;;8.33;7.60;;;;;;;4.44;87.41;102038.09;5015666;28;20217;-83
2023/02/15 01:57:36;;;;;;;9.40;8.50;;;;;;;4.47;86.88;102043.34;5015915;28;20206;-82
2023/02/15 02:00:09;;;;;;;10.20;9.30;;;;;;;4.37;86.41;102060.25;5015657;28;20233;-80
2023/02/15 02:02:36;;;;;;;10.23;8.90;;;;;;;4.30;86.31;102071.25;5015871;28;20653;-80
2023/02/15 02:05:06;;;;;;;10.13;9.27;;;;;;;3.97;86.25;102087.34;5015997;28;20212;-81
2023/02/15 02:07:35;;;;;;;9.23;8.43;;;;;;;3.74;87.54;102054.66;5016096;28;20298;-82
2023/02/15 02:10:03;;;;;;;8.73;7.97;;;;;;;3.77;88.08;102029.84;5016051;28;20639;-81
2023/02/15 02:12:32;;;;;;;8.27;7.50;;;;;;;3.78;88.54;102016.09;5016402;28;20268;-80
2023/02/15 02:14:59;;;;;;;8.90;8.10;;;;;;;3.85;88.22;102001.69;5015863;28;20736;-81
2023/02/15 02:17:41;;;;;;;7.20;6.50;;;;;;;3.88;88.37;102001.78;5017006;28;20617;-80
2023/02/15 02:20:29;;;;;;;9.00;8.20;;;;;;;3.87;87.96;102004.34;5019799;28;20238;-83
2023/02/15 02:23:11;;;;;;;7.60;6.93;;;;;;;3.90;87.97;102000.13;5020239;28;20205;-82
2023/02/15 02:26:15;;;;;;;6.33;5.83;;;;;;;3.92;87.48;102000.19;5019599;28;20209;-82
2023/02/15 02:29:12;;;;;;;6.93;6.43;;;;;;;3.89;87.73;102005.25;5019195;28;20230;-80
2023/02/15 02:32:03;;;;;;;7.17;6.57;;;;;;;3.91;87.31;102001.91;5020485;28;20207;-80
2023/02/15 02:34:37;;;;;;;6.93;6.23;;;;;;;3.88;86.90;102000.91;5019800;28;20215;-81
2023/02/15 02:37:13;;;;;;;7.40;6.70;;;;;;;3.82;87.03;102006.75;5019609;28;20204;-81
2023/02/15 02:39:49;;;;;;;6.67;6.07;;;;;;;3.71;86.95;102005.53;5018602;28;20716;-81
2023/02/15 02:42:25;;;;;;;6.97;6.37;;;;;;;3.58;86.49;102002.47;5019157;28;20210;-81
2023/02/15 02:44:59;;;;;;;5.97;5.47;;;;;;;3.52;86.90;101991.94;5019393;28;20238;-80
2023/02/15 02:47:33;;;;;;;6.33;5.80;;;;;;;3.48;87.18;101984.06;5020153;28;20210;-80
2023/02/15 02:50:04;;;;;;;8.10;7.37;;;;;;;3.44;87.30;101971.88;5019819;28;20227;-80
2023/02/15 02:52:39;;;;;;;6.57;5.97;;;;;;;3.39;87.61;101971.72;5019528;28;20211;-82
2023/02/15 02:55:09;;;;;;;6.93;6.33;;;;;;;3.44;87.79;101964.13;5020206;28;20261;-83
2023/02/15 02:57:42;;;;;;;6.90;6.30;;;;;;;3.35;87.91;101955.25;5019498;28;20703;-82
2023/02/15 03:00:10;;;;;;;5.87;5.37;;;;;;;3.30;88.56;101930.09;5019614;28;20229;-80
2023/02/15 03:02:42;;;;;;;7.33;6.63;;;;;;;3.30;89.06;101919.75;5019254;28;20621;-82
2023/02/15 03:05:16;;;;;;;7.87;7.00;;;;;;;3.35;88.50;101918.19;5020003;28;20556;-82
2023/02/15 03:07:44;;;;;;;6.53;6.03;;;;;;;3.36;88.63;101907.06;5019380;28;20199;-81
2023/02/15 03:10:11;;;;;;;7.13;6.53;;;;;;;3.32;88.59;101900.91;5019596;28;20222;-82
2023/02/15 03:12:40;;;;;;;6.60;6.10;;;;;;;3.19;88.92;101903.88;5019152;28;20204;-82
2023/02/15 03:15:10;;;;;;;6.40;5.80;;;;;;;3.08;89.38;101889.75;5019037;28;20206;-82
2023/02/15 03:17:41;;;;;;;6.47;5.87;;;;;;;3.05;89.08;101882.78;5021390;28;20254;-82
2023/02/15 03:20:14;;;;;;;5.70;5.30;;;;;;;3.08;89.36;101864.84;5018939;28;20704;-81
2023/02/15 03:22:47;;;;;;;6.70;6.00;;;;;;;3.05;89.60;101867.28;5019385;28;20213;-83
2023/02/15 03:25:18;;;;;;;7.80;6.27;;;;;;;2.95;89.25;101858.38;5018562;28;20210;-82
2023/02/15 03:27:46;;;;;;;7.33;6.73;;;;;;;2.93;90.21;101852.28;5019123;28;20210;-82
2023/02/15 03:30:15;;;;;;;8.40;6.87;;;;;;;2.95;90.27;101840.34;5018846;28;20291;-82
2023/02/15 03:32:44;;;;;;;6.47;5.87;;;;;;;2.90;91.28;101828.97;5018591;28;20211;-82
2023/02/15 03:35:11;;;;;;;6.97;6.37;;;;;;;2.83;91.76;101816.66;5019268;28;20277;-81
2023/02/15 03:37:42;;;;;;;8.67;7.87;;;;;;;2.92;92.26;101791.22;5018340;28;20204;-82
2023/02/15 03:43:03;;;;;;;9.40;8.50;;;;;;;2.95;91.94;101780.09;5018540;28;20257;-80
2023/02/15 03:45:34;;;;;;;8.77;7.83;;;;;;;2.94;91.75;101779.25;5019287;28;20207;-81
2023/02/15 03:48:02;;;;;;;9.00;8.10;;;;;;;3.04;91.79;101777.84;5024998;28;20255;-81
2023/02/15 03:53:21;;;;;;;9.43;8.63;;;;;;;3.12;92.15;101775.53;5017835;28;20209;-81
2023/02/15 03:55:48;;;;;;;10.43;9.43;;;;;;;3.01;92.82;101770.00;5018069;28;20630;-82
2023/02/15 04:03:52;;;;;;;10.20;9.17;;;;;;;3.30;92.54;101752.03;5017927;28;20222;-83
2023/02/15 04:06:20;;;;;;;10.43;9.53;;;;;;;3.30;91.73;101767.50;5017392;28;20265;-82
2023/02/15 04:11:31;;;;;;;8.97;8.17;;;;;;;3.29;91.16;101797.63;5017616;28;20768;-81
2023/02/15 04:13:58;;;;;;;9.47;8.63;;;;;;;3.31;90.47;101811.44;5017304;28;20284;-82
2023/02/15 04:16:24;;;;;;;8.70;8.00;;;;;;;3.27;89.95;101827.66;5016882;28;20238;-81
2023/02/15 04:27:05;;;;;;;8.90;8.00;;;;;;;3.23;88.29;101885.16;5037828;28;20205;-82
2023/02/15 04:29:32;;;;;;;9.27;8.47;;;;;;;3.23;87.77;101895.47;5036666;28;20230;-79
2023/02/15 04:32:00;;;;;;;9.07;8.20;;;;;;;3.22;87.72;101898.84;5036672;28;20202;-82
2023/02/15 04:34:27;;;;;;;8.83;8.03;;;;;;;3.23;87.45;101910.94;5037631;28;20624;-82
2023/02/15 04:36:55;;;;;;;9.17;8.30;;;;;;;3.17;87.21;101923.59;5037004;28;20244;-81
2023/02/15 04:39:21;;;;;;;8.27;7.47;;;;;;;3.15;86.53;101926.16;5036997;28;20225;-81
2023/02/15 04:41:48;;;;;;;9.23;8.20;;;;;;;3.11;86.41;101936.28;5035876;28;20222;-83
2023/02/15 04:44:15;;;;;;;9.73;8.83;;;;;;;3.03;87.54;101932.56;5037267;28;20751;-82
2023/02/15 04:46:41;;;;;;;9.60;8.80;;;;;;;3.02;87.77;101915.34;5033269;28;20206;-80
2023/02/15 04:49:09;;;;;;;9.50;8.60;;;;;;;3.00;87.26;101912.69;5020985;28;20220;-81
2023/02/15 04:51:35;;;;;;;9.00;8.20;;;;;;;2.87;87.81;101908.78;5016694;28;20280;-79
2023/02/15 04:54:03;;;;;;;8.53;7.63;;;;;;;2.68;88.08;101894.38;5017174;28;20620;-82
2023/02/15 04:56:31;;;;;;;9.80;8.80;;;;;;;2.57;88.85;101878.47;5017551;28;20211;-82
2023/02/15 04:58:57;;;;;;;11.90;10.80;;;;;;;2.62;89.80;101860.63;5017074;28;20241;-83
2023/02/15 05:01:23;;;;;;;11.40;10.40;;;;;;;2.58;89.51;101843.28;5016875;28;20231;-83
2023/02/15 05:03:50;;;;;;;11.13;9.97;;;;;;;2.67;89.61;101833.28;5016883;28;20218;-82
2023/02/15 05:06:16;;;;;;;11.60;10.40;;;;;;;2.69;89.43;101836.81;5017112;28;20706;-83
2023/02/15 05:08:43;;;;;;;11.23;10.13;;;;;;;2.62;89.46;101831.38;5017292;28;20226;-80
2023/02/15 05:11:10;;;;;;;9.80;8.73;;;;;;;2.63;89.44;101822.84;5016981;28;20207;-82
2023/02/15 05:13:37;;;;;;;10.87;9.87;;;;;;;2.68;88.96;101831.63;5016497;28;20209;-81
2023/02/15 05:16:03;;;;;;;11.17;10.17;;;;;;;2.53;88.93;101837.94;5017256;28;20205;-83
2023/02/15 05:18:30;;;;;;;10.97;9.93;;;;;;;2.53;88.85;101843.09;5030077;28;20234;-82
2023/02/15 05:20:56;;;;;;;11.97;10.73;;;;;;;2.55;88.39;101832.88;5016846;28;20227;-82
2023/02/15 05:23:23;;;;;;;10.37;9.33;;;;;;;2.56;89.03;101840.66;5016548;28;20203;-82
2023/02/15 05:28:37;;;;;;;9.73;8.83;;;;;;;2.48;89.14;101833.44;5016425;28;20593;-81
2023/02/15 05:31:08;;;;;;;9.93;9.03;;;;;;;2.46;88.53;101827.34;5016373;28;20213;-80
2023/02/15 05:33:34;;;;;;;10.97;9.87;;;;;;;2.49;89.11;101823.19;5016207;28;20211;-82
2023/02/15 05:36:01;;;;;;;10.63;8.20;;;;;;;2.49;89.06;101828.34;5015916;28;20615;-82
2023/02/15 05:38:27;;;;;;;12.73;11.53;;;;;;;2.29;90.31;101817.31;5016310;28;20294;-80
2023/02/15 05:40:54;;;;;;;11.30;10.30;;;;;;;2.33;90.94;101784.81;5016172;28;20226;-80
2023/02/15 05:43:21;;;;;;;11.33;10.33;;;;;;;2.37;91.05;101777.25;5015672;28;20211;-80
2023/02/15 05:45:50;;;;;;;10.50;9.40;;;;;;;2.47;90.09;101780.16;5016671;28;20259;-81
2023/02/15 05:48:18;;;;;;;10.57;9.57;;;;;;;2.47;89.44;101795.63;5016082;28;20221;-81
2023/02/15 05:50:44;;;;;;;11.17;10.07;;;;;;;2.41;88.80;101811.75;5016478;28;20196;-82
2023/02/15 05:53:11;;;;;;;12.10;10.93;;;;;;;2.26;89.30;101819.81;5016185;28;20266;-81
2023/02/15 05:55:39;;;;;;;12.80;11.60;;;;;;;1.90;89.39;101822.72;5016700;28;20218;-83
2023/02/15 05:58:05;;;;;;;13.87;12.47;;;;;;;1.35;91.96;101792.25;5016500;28;20293;-82
2023/02/15 06:00:32;;;;;;;12.50;11.37;;;;;;;1.32;93.27;101740.66;5016395;28;20289;-82
2023/02/15 06:03:00;;;;;;;12.13;11.03;;;;;;;1.47;92.64;101712.97;5016196;28;20366;-82
2023/02/15 06:05:26;;;;;;;12.03;10.93;;;;;;;1.61;92.78;101708.34;5016366;28;20207;-82
2023/02/15 06:07:53;;;;;;;12.70;11.40;;;;;;;1.50;91.74;101725.06;5016763;28;20278;-82
2023/02/15 06:10:19;;;;;;;13.77;12.37;;;;;;;1.50;92.34;101719.91;5016188;28;20270;-80
2023/02/15 06:12:46;;;;;;;13.47;12.07;;;;;;;1.53;92.58;101720.06;5016620;28;20226;-82
2023/02/15 06:15:13;;;;;;;13.83;12.50;;;;;;;1.55;93.12;101706.41;5015953;28;20273;-81
2023/02/15 06:17:42;;;;;;;12.47;11.27;;;;;;;1.62;92.65;101701.50;5016133;28;20225;-81
2023/02/15 06:20:10;;;;;;;12.70;11.50;;;;;;;1.72;92.46;101701.88;5015868;28;20220;-80
2023/02/15 06:22:37;;;;;;;10.47;9.37;;;;;;;1.62;91.77;101712.66;5015781;28;20227;-81
2023/02/15 06:25:04;;;;;;;10.73;9.57;;;;;;;1.60;91.51;101719.44;5016117;28;20565;-82
2023/02/15 06:27:30;;;;;;;10.37;8.60;;;;;;;1.58;92.25;101713.38;5015615;28;20300;-81
2023/02/15 06:29:57;;;;;;;10.43;9.47;;;;;;;1.68;92.44;101696.56;5015382;28;20636;-81
2023/02/15 06:32:23;;;;;;;10.37;9.27;;;;;;;1.67;92.76;101702.56;5016322;28;20205;-79
2023/02/15 06:34:50;;;;;;;9.03;8.17;;;;;;;1.54;93.40;101703.78;5015479;28;20238;-81
2023/02/15 06:37:17;;;;;;;10.67;9.67;;;;;;;1.51;94.40;101663.38;5015210;28;20752;-81
2023/02/15 06:39:44;;;;;;;9.73;8.87;;;;;;;1.70;94.57;101651.19;5016205;28;20223;-81
2023/02/15 06:42:10;;;;;;;12.40;11.30;;;;;;;1.71;93.87;101653.81;5023111;28;20748;-80
2023/02/15 06:44:37;;;;;;;13.70;12.30;;;;;;;1.30;93.01;101673.72;5016613;28;20534;-80
2023/02/15 06:47:03;;;;;;;14.97;13.40;;;;;;;1.11;93.76;101667.00;5020748;28;20726;-80
2023/02/15 06:49:30;;;;;;;13.37;12.07;;;;;;;0.79;94.97;101648.59;5017393;28;20281;-80
2023/02/15 06:51:56;;;;;;;15.10;13.60;;;;;;;0.65;96.38;101621.44;5013057;28;20254;-80
2023/02/15 06:54:24;;;;;;;13.73;12.33;;;;;;;0.54;96.37;101608.16;5016429;28;20289;-80
2023/02/15 06:56:50;;;;;;;15.60;14.03;;;;;;;0.36;97.79;101587.75;5016468;28;20742;-80
2023/02/15 06:59:17;;;;;;;15.23;13.63;;;;;;;0.17;99.35;101551.84;5015737;28;20227;-81
2023/02/15 07:01:43;;;;;;;13.93;12.67;;;;;;;0.20;99.66;101526.31;5015540;28;20224;-81
2023/02/15 07:04:10;;;;;;;18.00;13.73;;;;;;;0.72;100.00;101466.69;5017767;28;20242;-81
2023/02/15 07:06:36;;;;;;;13.87;12.57;;;;;;;1.23;100.00;101401.69;5020662;28;20350;-81
2023/02/15 07:09:04;;;;;;;14.03;12.63;;;;;;;1.60;100.00;101366.91;5022092;28;20223;-80
2023/02/15 07:14:15;;;;;;;33.70;18.00;;;;;;;2.74;100.00;101303.34;5025699;28;20206;-80
2023/02/15 07:16:42;;;;;;;16.63;14.90;;;;;;;2.97;100.00;101291.03;5021445;28;20204;-81
2023/02/15 07:19:08;;;;;;;13.10;11.83;;;;;;;2.99;100.00;101310.00;5016143;28;20224;-82
2023/02/15 07:21:35;;;;;;;13.83;12.57;;;;;;;1.78;100.00;101392.34;5016277;28;20298;-82
2023/02/15 07:24:02;;;;;;;14.50;13.20;;;;;;;1.04;100.00;101456.72;5019189;28;20224;-82
2023/02/15 07:26:28;;;;;;;16.93;15.13;;;;;;;1.07;100.00;101484.25;5018778;28;20234;-82
2023/02/15 07:28:56;;;;;;;18.13;15.60;;;;;;;1.54;100.00;101462.78;5018568;28;20235;-81
2023/02/15 07:31:22;;;;;;;14.43;12.93;;;;;;;1.47;100.00;101490.84;5018428;28;20207;-82
2023/02/15 07:33:49;;;;;;;14.00;12.53;;;;;;;1.50;100.00;101520.09;5014574;28;20731;-81
2023/02/15 07:36:15;;;;;;;14.27;12.93;;;;;;;1.75;100.00;101520.97;5018103;28;20207;-81
2023/02/15 07:38:43;;;;;;;14.23;12.93;;;;;;;2.12;100.00;101509.31;5018270;28;20218;-80
2023/02/15 07:41:10;;;;;;;13.33;12.07;;;;;;;1.45;97.61;101597.94;5020415;28;20603;-83
2023/02/15 07:43:39;;;;;;;13.27;12.07;;;;;;;0.77;97.28;101632.22;5022901;28;20210;-82
2023/02/15 07:46:09;;;;;;;14.17;12.77;;;;;;;0.56;99.07;101621.09;5023367;28;20202;-79
2023/02/15 07:48:35;;;;;;;14.77;13.40;;;;;;;0.65;100.00;101610.28;5020062;28;20219;-81
2023/02/15 07:51:04;;;;;;;14.03;12.57;;;;;;;0.52;100.00;101606.34;5022465;28;20261;-82
2023/02/15 07:53:30;;;;;;;13.37;12.07;;;;;;;0.30;100.00;101589.19;5021479;28;20203;-80
2023/02/15 07:55:59;;;;;;;14.03;12.63;;;;;;;0.17;100.00;101570.69;5020762;28;20202;-80
2023/02/15 07:58:50;;;;;;;13.83;12.53;;;;;;;0.22;100.00;101541.75;5016868;28;20286;-82
2023/02/15 08:01:13;;;;;;;14.73;11.93;;;;;;;0.54;100.00;101510.56;5020561;28;20197;-80
2023/02/15 08:03:40;;;;;;;13.67;12.27;;;;;;;0.53;100.00;101515.63;5022350;28;20217;-80
2023/02/15 08:06:07;;;;;;;15.37;13.73;;;;;;;0.66;100.00;101529.84;5021781;28;20597;-79
2023/02/15 08:08:35;;;;;;;14.67;13.17;;;;;;;0.63;100.00;101517.72;5021774;28;20219;-80
2023/02/15 08:13:53;;;;;;;15.45;14.05;;;;;;;0.93;100.00;101532.56;5008415;28;20497;-82
2023/02/15 08:16:22;;;;;;;13.70;12.30;;;;;;;1.28;100.00;101525.31;5016445;28;20207;-82
2023/02/15 08:18:49;;;;;;;12.40;11.10;;;;;;;1.49;100.00;101538.06;5012932;28;20259;-82
2023/02/15 08:21:16;;;;;;;11.80;10.63;;;;;;;1.87;100.00;101521.38;5014202;28;20655;-83
2023/02/15 08:23:42;;;;;;;12.10;11.00;;;;;;;1.88;100.00;101541.13;5017680;28;20231;-80
2023/02/15 08:26:08;;;;;;;12.27;11.07;;;;;;;1.78;98.44;101591.47;5017210;28;20207;-83
2023/02/15 08:28:35;;;;;;;11.40;10.30;;;;;;;1.91;98.37;101604.75;5017228;28;20296;-80
2023/02/15 08:31:05;;;;;;;11.47;10.37;;;;;;;1.83;98.60;101601.03;5017849;28;20218;-83
2023/02/15 08:33:33;;;;;;;12.63;11.43;;;;;;;1.87;98.94;101597.75;5016645;28;20621;-83
2023/02/15 08:36:03;;;;;;;11.80;10.70;;;;;;;1.98;97.59;101602.44;5012153;28;20258;-83
2023/02/15 08:38:30;;;;;;;12.90;11.67;;;;;;;2.33;98.49;101595.03;5008917;28;20286;-83
2023/02/15 08:40:56;;;;;;;11.30;10.30;;;;;;;2.64;98.63;101593.47;5009384;28;20204;-82
2023/02/15 08:43:23;;;;;;;11.10;9.90;;;;;;;2.84;98.20;101599.25;5010553;28;20224;-83
2023/02/15 08:45:49;;;;;;;11.27;10.23;;;;;;;3.01;96.81;101609.22;5014278;28;20210;-81
2023/02/15 08:48:16;;;;;;;10.43;9.43;;;;;;;3.28;95.90;101633.28;5009358;28;20257;-81
2023/02/15 08:50:43;;;;;;;8.17;7.47;;;;;;;3.41;90.03;101708.47;5014087;28;20203;-81
2023/02/15 08:53:10;;;;;;;8.80;8.10;;;;;;;3.67;90.64;101754.06;5010321;28;20227;-80
2023/02/15 08:55:36;;;;;;;9.70;8.90;;;;;;;3.92;88.29;101806.44;5003082;28;20491;-79
2023/02/15 08:58:02;;;;;;;8.70;8.00;;;;;;;4.00;83.90;101860.94;5003114;28;20458;-78
2023/02/15 09:00:29;;;;;;;9.40;8.73;;;;;;;4.09;83.10;101931.84;4997334;28;20660;-80
2023/02/15 09:02:55;;;;;;;7.70;7.07;;;;;;;4.03;82.80;101975.59;4999593;28;20225;-79
2023/02/15 09:05:22;;;;;;;8.20;7.40;;;;;;;4.06;82.77;102004.09;5004413;28;20289;-78
2023/02/15 09:07:50;;;;;;;13.03;11.93;;;;;;;3.97;80.49;102064.09;5010099;28;20214;-77
2023/02/15 09:10:16;;;;;;;8.97;8.27;;;;;;;3.98;80.21;102083.06;5006325;28;20231;-77
2023/02/15 09:12:43;;;;;;;7.73;7.13;;;;;;;4.01;80.86;102092.66;5010982;28;20207;-80
2023/02/15 09:15:10;;;;;;;8.63;7.63;;;;;;;3.98;81.09;102109.78;5006914;28;20209;-80
2023/02/15 09:17:37;;;;;;;9.33;8.57;;;;;;;3.97;82.43;102100.28;5010084;28;20202;-80
2023/02/15 09:20:04;;;;;;;9.10;8.20;;;;;;;3.96;83.70;102069.22;5009335;28;20229;-80
2023/02/15 09:22:31;;;;;;;11.17;10.17;;;;;;;3.97;83.31;102056.34;5017286;28;20219;-80
2023/02/15 09:24:58;;;;;;;12.13;11.13;;;;;;;3.49;87.76;102025.41;5014471;28;20205;-78
2023/02/15 09:27:25;;;;;;;11.37;10.37;;;;;;;3.18;90.94;101908.19;5012576;28;20250;-78
2023/02/15 09:29:51;;;;;;;12.73;11.27;;;;;;;3.24;91.86;101840.44;5008427;28;20219;-77
2023/02/15 09:32:18;;;;;;;11.53;10.53;;;;;;;3.38;91.56;101813.38;5012568;28;20262;-77
2023/02/15 09:34:44;;;;;;;10.90;9.63;;;;;;;3.53;91.28;101800.09;5011667;28;20301;-78
2023/02/15 09:37:10;;;;;;;10.27;9.33;;;;;;;3.66;90.61;101795.31;5012504;28;20243;-78
2023/02/15 09:39:40;;;;;;;12.33;11.23;;;;;;;3.68;90.59;101798.81;5012067;28;20231;-78
2023/02/15 09:42:32;;;;;;;12.07;10.90;;;;;;;3.77;89.93;101797.41;5012262;28;20286;-78
2023/02/15 09:45:14;;;;;;;9.83;8.93;;;;;;;3.81;89.21;101816.47;5004657;28;20204;-82
2023/02/15 09:48:00;;;;;;;9.77;8.77;;;;;;;3.66;88.90;101834.91;5018103;28;20583;-78
2023/02/15 09:50:34;;;;;;;10.63;9.73;;;;;;;3.36;92.04;101793.50;5013779;28;20231;-77
2023/02/15 09:53:16;;;;;;;13.00;11.90;;;;;;;3.26;93.31;101738.16;5016529;28;20689;-79
2023/02/15 09:55:52;;;;;;;9.77;8.97;;;;;;;3.38;93.44;101707.56;5009403;28;20203;-78
2023/02/15 09:58:29;;;;;;;10.90;9.90;;;;;;;3.47;93.49;101691.50;5012751;28;20298;-77
2023/02/15 10:01:03;;;;;;;11.63;10.63;;;;;;;3.66;93.05;101686.88;5011313;28;20214;-77
2023/02/15 10:03:45;;;;;;;10.00;9.10;;;;;;;3.78;93.09;101692.38;5018262;28;20230;-79
2023/02/15 10:06:32;;;;;;;10.07;9.17;;;;;;;3.95;91.88;101695.47;5013111;28;20212;-78
2023/02/15 10:09:11;;;;;;;9.57;8.77;;;;;;;4.06;91.89;101709.53;5015955;28;20232;-79
2023/02/15 10:11:58;;;;;;;8.53;7.80;;;;;;;4.15;92.13;101706.38;5015935;28;20213;-79
2023/02/15 10:14:48;;;;;;;9.60;8.73;;;;;;;4.24;92.35;101685.94;5014408;28;20213;-78
2023/02/15 10:17:27;;;;;;;9.33;8.53;;;;;;;4.15;90.58;101725.31;5020972;28;20219;-78
2023/02/15 10:20:10;;;;;;;9.30;8.50;;;;;;;4.32;90.75;101735.25;5028449;28;20229;-79
2023/02/15 10:22:47;;;;;;;8.53;7.83;;;;;;;4.32;89.07;101762.00;5015140;28;20225;-78
2023/02/15 10:25:24;;;;;;;13.63;12.20;;;;;;;4.30;88.08;101793.78;5016387;28;20266;-78
2023/02/15 10:27:51;;;;;;;8.03;7.33;;;;;;;4.23;86.88;101834.09;5014892;28;20212;-78
2023/02/15 10:30:27;;;;;;;8.73;7.93;;;;;;;4.40;87.33;101839.75;5015004;28;20223;-79
2023/02/15 10:33:01;;;;;;;8.63;7.83;;;;;;;4.36;85.88;101871.50;5012430;28;20269;-78
2023/02/15 10:35:35;;;;;;;7.97;7.27;;;;;;;4.32;86.18;101883.47;5014238;28;20208;-79
2023/02/15 10:38:11;;;;;;;8.00;7.30;;;;;;;4.41;86.39;101867.34;5017363;28;20216;-79
2023/02/15 10:40:46;;;;;;;10.60;9.70;;;;;;;4.47;87.08;101853.72;5020378;28;20263;-78
2023/02/15 10:43:24;;;;;;;9.13;8.27;;;;;;;4.47;87.51;101840.81;5019818;28;20573;-78
2023/02/15 10:46:00;;;;;;;11.67;10.67;;;;;;;4.49;87.51;101845.19;5020432;28;20252;-79
2023/02/15 10:48:48;;;;;;;14.77;13.33;;;;;;;4.38;85.78;101875.91;5035483;28;20227;-78
2023/02/15 10:51:20;;;;;;;11.07;10.10;;;;;;;4.36;86.86;101871.50;5022280;28;20265;-79
2023/02/15 10:54:05;;;;;;;10.33;9.43;;;;;;;4.47;86.90;101856.31;5040022;28;20221;-79
2023/02/15 10:56:39;;;;;;;10.53;9.43;;;;;;;4.57;87.10;101847.97;5039577;28;20209;-79
2023/02/15 10:59:23;;;;;;;8.97;8.20;;;;;;;4.67;85.37;101875.84;5039990;28;20248;-79
2023/02/15 11:01:56;;;;;;;9.97;8.97;;;;;;;4.73;84.24;101908.78;5039692;28;20207;-79
2023/02/15 11:04:40;;;;;;;10.93;9.93;;;;;;;4.75;83.36;101939.03;5041619;28;20226;-82
2023/02/15 11:07:13;;;;;;;9.10;8.40;;;;;;;4.86;85.27;101918.66;5047583;28;20224;-82
2023/02/15 11:09:44;;;;;;;10.50;9.50;;;;;;;5.00;85.45;101900.94;5044745;28;20229;-79
2023/02/15 11:12:15;;;;;;;8.40;7.70;;;;;;;4.93;82.93;101930.91;5028795;28;20207;-82
2023/02/15 11:14:50;;;;;;;8.93;8.13;;;;;;;5.06;84.53;101924.38;5016695;28;20661;-87
2023/02/15 11:17:22;;;;;;;9.40;8.60;;;;;;;5.05;83.35;101948.50;5018573;28;20220;-82
2023/02/15 11:20:01;;;;;;;9.90;8.97;;;;;;;4.80;82.05;101967.63;5015829;28;20225;-85
2023/02/15 11:22:27;;;;;;;9.30;8.50;;;;;;;4.89;82.60;101978.22;5015144;28;20294;-81
2023/02/15 11:24:57;;;;;;;9.27;8.47;;;;;;;4.73;82.03;101971.72;5017277;28;20228;-79
2023/02/15 11:27:27;;;;;;;10.10;9.20;;;;;;;4.89;83.19;101961.84;5016414;28;20292;-82
2023/02/15 11:30:00;;;;;;;10.57;9.57;;;;;;;5.06;83.20;101945.09;5015898;28;20278;-82
2023/02/15 11:32:31;;;;;;;10.10;9.20;;;;;;;5.16;82.17;101959.16;5016677;28;20212;-80
2023/02/15 11:35:05;;;;;;;10.40;9.60;;;;;;;5.29;83.33;101950.00;5016761;28;20213;-81
2023/02/15 11:37:37;;;;;;;9.33;8.50;;;;;;;5.41;82.80;101933.94;5016709;28;20205;-83
2023/02/15 11:40:16;;;;;;;8.57;7.87;;;;;;;5.57;82.79;101921.44;5015966;28;20289;-82
2023/02/15 11:42:44;;;;;;;8.50;7.80;;;;;;;5.63;82.36;101927.59;5015845;28;20226;-82
2023/02/15 11:45:22;;;;;;;8.30;7.60;;;;;;;5.79;80.81;101966.03;5016277;28;20246;-84
2023/02/15 11:47:50;;;;;;;7.97;7.27;;;;;;;6.02;78.54;101997.72;5016109;28;20680;-83
2023/02/15 11:50:22;;;;;;;8.13;7.43;;;;;;;6.21;78.21;102055.22;5015586;28;20288;-84
2023/02/15 11:52:48;;;;;;;9.50;8.60;;;;;;;6.25;77.51;102080.38;5015843;28;20237;-83
2023/02/15 11:55:21;;;;;;;8.33;7.63;;;;;;;6.32;76.21;102103.94;5016154;28;20742;-83
2023/02/15 11:57:53;;;;;;;7.70;7.10;;;;;;;6.39;71.93;102174.97;5016522;28;20202;-84
2023/02/15 12:00:31;;;;;;;7.60;7.03;;;;;;;6.54;71.88;102228.97;5016169;28;20240;-84
2023/02/15 12:02:59;;;;;;;10.43;9.63;;;;;;;6.65;71.11;102269.06;5015770;28;20755;-83
2023/02/15 12:05:26;;;;;;;8.73;8.03;;;;;;;6.89;70.95;102306.88;5016348;28;20207;-83
2023/02/15 12:07:56;;;;;;;8.97;8.27;;;;;;;7.12;71.78;102316.16;5016176;28;20217;-83
2023/02/15 12:10:25;;;;;;;8.60;7.90;;;;;;;6.89;73.88;102274.00;5016244;28;20235;-83
2023/02/15 12:13:10;;;;;;;15.00;13.77;;;;;;;6.76;75.22;102233.91;5016379;28;20234;-81